createdAt,value
2023-02-01T00:00:37.119Z,5.63
2023-02-01T00:01:37.188Z,5.60
2023-02-01T00:02:37.270Z,5.68
2023-02-01T00:03:37.271Z,5.64
2023-02-01T00:04:37.288Z,5.63
2023-02-01T00:05:37.348Z,5.67
2023-02-01T00:06:38.027Z,5.63
2023-02-01T00:07:37.420Z,5.52
2023-02-01T00:08:37.469Z,5.63
2023-02-01T00:09:37.526Z,5.68
2023-02-01T00:10:37.536Z,5.74
2023-02-01T00:11:37.580Z,5.74
2023-02-01T00:12:37.651Z,5.74
2023-02-01T00:13:37.667Z,5.68
2023-02-01T00:14:37.713Z,5.82
2023-02-01T00:15:37.775Z,5.75
2023-02-01T00:16:37.804Z,5.82
2023-02-01T00:17:37.881Z,5.71
2023-02-01T00:18:38.519Z,5.77
2023-02-01T00:19:37.915Z,5.77
2023-02-01T00:20:37.958Z,5.71
2023-02-01T00:21:38.016Z,5.68
2023-02-01T00:22:38.065Z,5.67
2023-02-01T00:23:38.091Z,5.75
2023-02-01T00:24:38.165Z,5.73
2023-02-01T00:25:38.165Z,5.74
2023-02-01T00:26:38.320Z,5.68
2023-02-01T00:27:38.291Z,5.68
2023-02-01T00:28:38.296Z,5.66
2023-02-01T00:29:38.345Z,5.71
2023-02-01T00:30:38.404Z,5.68
2023-02-01T00:31:38.476Z,5.75
2023-02-01T00:32:38.497Z,5.82
2023-02-01T00:33:38.506Z,5.75
2023-02-01T00:34:38.564Z,5.73
2023-02-01T00:35:38.626Z,5.75
2023-02-01T00:36:38.634Z,5.74
2023-02-01T00:37:38.680Z,5.67
2023-02-01T00:38:38.724Z,5.71
2023-02-01T00:39:38.790Z,5.68
2023-02-01T00:40:38.830Z,5.56
2023-02-01T00:41:38.862Z,5.57
2023-02-01T00:42:38.886Z,5.50
2023-02-01T00:43:38.940Z,5.53
2023-02-01T00:44:38.976Z,5.60
2023-02-01T00:45:39.040Z,5.67
2023-02-01T00:46:39.091Z,5.55
2023-02-01T00:47:39.161Z,5.60
2023-02-01T00:48:39.154Z,5.56
2023-02-01T00:49:39.195Z,5.60
2023-02-01T00:50:39.235Z,5.55
2023-02-01T00:51:39.271Z,5.59
2023-02-01T00:52:39.344Z,5.55
2023-02-01T00:53:39.387Z,5.55
2023-02-01T00:54:39.426Z,5.57
2023-02-01T00:55:39.439Z,5.66
2023-02-01T00:56:39.493Z,5.60
2023-02-01T00:57:39.541Z,5.57
2023-02-01T00:58:39.605Z,5.63
2023-02-01T00:59:39.630Z,5.64
2023-02-01T01:00:39.667Z,5.71
2023-02-01T01:01:39.743Z,5.52
2023-02-01T01:02:39.735Z,5.64
2023-02-01T01:03:39.791Z,5.59
2023-02-01T01:04:39.849Z,5.67
2023-02-01T01:05:39.867Z,5.63
2023-02-01T01:06:39.926Z,5.67
2023-02-01T01:07:39.964Z,5.66
2023-02-01T01:08:40.011Z,5.59
2023-02-01T01:09:40.054Z,5.56
2023-02-01T01:10:40.081Z,5.60
2023-02-01T01:11:40.120Z,5.53
2023-02-01T01:12:40.173Z,5.57
2023-02-01T01:13:40.233Z,5.57
2023-02-01T01:14:40.255Z,5.66
2023-02-01T01:15:40.300Z,5.63
2023-02-01T01:16:40.362Z,5.71
2023-02-01T01:17:40.383Z,5.68
2023-02-01T01:18:40.415Z,5.64
2023-02-01T01:19:40.465Z,5.74
2023-02-01T01:20:40.500Z,5.66
2023-02-01T01:21:40.567Z,5.67
2023-02-01T01:22:40.585Z,5.64
2023-02-01T01:23:40.662Z,5.56
2023-02-01T01:24:40.678Z,5.50
2023-02-01T01:25:40.740Z,5.56
2023-02-01T01:26:40.912Z,5.55
2023-02-01T01:27:40.807Z,5.46
2023-02-01T01:28:40.882Z,5.59
2023-02-01T01:29:40.886Z,5.59
2023-02-01T01:30:41.553Z,5.49
2023-02-01T01:31:41.024Z,5.52
2023-02-01T01:32:41.011Z,5.52
2023-02-01T01:33:41.084Z,5.57
2023-02-01T01:34:41.103Z,5.48
2023-02-01T01:35:41.147Z,5.41
2023-02-01T01:36:41.179Z,5.41
2023-02-01T01:37:41.231Z,5.57
2023-02-01T01:38:41.303Z,5.53
2023-02-01T01:39:41.309Z,5.49
2023-02-01T01:40:41.354Z,5.56
2023-02-01T01:41:41.407Z,5.49
2023-02-01T01:42:41.442Z,5.35
2023-02-01T01:43:41.500Z,5.45
2023-02-01T01:44:42.029Z,5.43
2023-02-01T01:45:41.569Z,5.43
2023-02-01T01:46:41.926Z,5.43
2023-02-01T01:47:41.646Z,5.50
2023-02-01T01:48:41.700Z,5.53
2023-02-01T01:49:41.743Z,5.45
2023-02-01T01:50:41.782Z,5.48
2023-02-01T01:51:41.921Z,5.48
2023-02-01T01:52:41.864Z,5.55
2023-02-01T01:53:41.914Z,5.49
2023-02-01T01:54:41.959Z,5.38
2023-02-01T01:55:41.996Z,5.32
2023-02-01T01:56:42.054Z,5.34
2023-02-01T01:57:42.084Z,5.45
2023-02-01T01:58:42.133Z,5.50
2023-02-01T01:59:42.164Z,5.48
2023-02-01T02:00:42.272Z,5.56
2023-02-01T02:01:42.361Z,5.50
2023-02-01T02:02:42.297Z,5.52
2023-02-01T02:03:42.338Z,5.45
2023-02-01T02:04:42.395Z,5.56
2023-02-01T02:05:42.413Z,5.59
2023-02-01T02:06:42.465Z,5.71
2023-02-01T02:07:42.513Z,5.74
2023-02-01T02:08:42.542Z,5.82
2023-02-01T02:09:48.153Z,5.88
2023-02-01T02:10:42.633Z,5.86
2023-02-01T02:11:42.679Z,5.88
2023-02-01T02:12:42.734Z,5.89
2023-02-01T02:13:42.758Z,5.81
2023-02-01T02:14:42.820Z,5.73
2023-02-01T02:15:42.839Z,5.77
2023-02-01T02:16:43.046Z,5.74
2023-02-01T02:17:42.923Z,5.77
2023-02-01T02:18:43.556Z,5.71
2023-02-01T02:19:43.015Z,5.78
2023-02-01T02:20:43.049Z,5.75
2023-02-01T02:21:43.129Z,5.75
2023-02-01T02:22:43.133Z,5.77
2023-02-01T02:23:43.187Z,5.78
2023-02-01T02:24:43.230Z,5.74
2023-02-01T02:25:43.271Z,5.78
2023-02-01T02:26:43.382Z,5.77
2023-02-01T02:27:43.393Z,5.74
2023-02-01T02:28:43.396Z,5.75
2023-02-01T02:29:43.429Z,5.75
2023-02-01T02:30:43.487Z,5.83
2023-02-01T02:31:43.556Z,5.89
2023-02-01T02:32:43.595Z,5.78
2023-02-01T02:33:43.597Z,5.78
2023-02-01T02:34:43.639Z,5.86
2023-02-01T02:35:43.701Z,5.83
2023-02-01T02:36:43.729Z,5.73
2023-02-01T02:37:43.788Z,5.81
2023-02-01T02:38:43.846Z,5.81
2023-02-01T02:39:43.861Z,5.71
2023-02-01T02:40:43.897Z,5.77
2023-02-01T02:41:43.936Z,5.74
2023-02-01T02:42:43.988Z,5.74
2023-02-01T02:43:44.044Z,5.81
2023-02-01T02:44:44.071Z,5.71
2023-02-01T02:45:44.128Z,5.70
2023-02-01T02:46:44.180Z,5.59
2023-02-01T02:47:44.224Z,5.60
2023-02-01T02:48:44.233Z,5.59
2023-02-01T02:49:44.279Z,5.66
2023-02-01T02:50:44.367Z,5.60
2023-02-01T02:51:44.363Z,5.56
2023-02-01T02:52:44.409Z,5.53
2023-02-01T02:53:44.450Z,5.57
2023-02-01T02:54:44.483Z,5.50
2023-02-01T02:55:44.550Z,5.49
2023-02-01T02:56:44.571Z,5.48
2023-02-01T02:57:44.608Z,5.53
2023-02-01T02:58:44.689Z,5.56
2023-02-01T02:59:44.698Z,5.59
2023-02-01T03:00:44.805Z,5.66
2023-02-01T03:01:44.795Z,5.60
2023-02-01T03:02:44.844Z,5.60
2023-02-01T03:03:44.894Z,5.59
2023-02-01T03:04:44.913Z,5.64
2023-02-01T03:05:44.973Z,5.52
2023-02-01T03:06:44.999Z,5.53
2023-02-01T03:07:45.045Z,5.52
2023-02-01T03:08:45.085Z,5.55
2023-02-01T03:09:45.129Z,5.55
2023-02-01T03:10:45.200Z,5.63
2023-02-01T03:11:45.210Z,5.56
2023-02-01T03:12:45.248Z,5.63
2023-02-01T03:13:45.287Z,5.64
2023-02-01T03:14:45.332Z,5.66
2023-02-01T03:15:45.407Z,5.66
2023-02-01T03:16:45.451Z,5.66
2023-02-01T03:17:46.044Z,5.70
2023-02-01T03:18:45.497Z,5.68
2023-02-01T03:19:45.539Z,5.67
2023-02-01T03:20:45.618Z,5.66
2023-02-01T03:21:45.631Z,5.70
2023-02-01T03:22:45.671Z,5.68
2023-02-01T03:23:45.718Z,5.63
2023-02-01T03:24:45.747Z,5.64
2023-02-01T03:25:45.820Z,5.60
2023-02-01T03:26:45.925Z,5.57
2023-02-01T03:27:45.897Z,5.59
2023-02-01T03:28:45.941Z,5.57
2023-02-01T03:29:45.957Z,5.67
2023-02-01T03:30:46.569Z,5.67
2023-02-01T03:31:46.067Z,5.68
2023-02-01T03:32:46.093Z,5.64
2023-02-01T03:33:46.156Z,5.67
2023-02-01T03:34:46.179Z,5.74
2023-02-01T03:35:46.220Z,5.63
2023-02-01T03:36:46.266Z,5.60
2023-02-01T03:37:46.293Z,5.59
2023-02-01T03:38:46.410Z,5.57
2023-02-01T03:39:46.396Z,5.67
2023-02-01T03:40:46.429Z,5.59
2023-02-01T03:41:46.472Z,5.56
2023-02-01T03:42:46.507Z,5.66
2023-02-01T03:43:46.572Z,5.60
2023-02-01T03:44:46.590Z,5.67
2023-02-01T03:45:46.666Z,5.71
2023-02-01T03:46:46.673Z,5.74
2023-02-01T03:47:46.717Z,5.73
2023-02-01T03:48:46.795Z,5.73
2023-02-01T03:49:46.807Z,5.71
2023-02-01T03:50:46.850Z,5.73
2023-02-01T03:51:46.922Z,5.67
2023-02-01T03:52:46.950Z,5.70
2023-02-01T03:53:46.968Z,5.71
2023-02-01T03:54:47.023Z,5.73
2023-02-01T03:55:47.067Z,5.81
2023-02-01T03:56:47.121Z,5.73
2023-02-01T03:57:47.221Z,5.77
2023-02-01T03:58:48.042Z,5.82
2023-02-01T03:59:47.228Z,5.68
2023-02-01T04:00:47.283Z,5.75
2023-02-01T04:01:47.306Z,5.74
2023-02-01T04:02:47.475Z,5.74
2023-02-01T04:03:47.415Z,5.78
2023-02-01T04:04:47.435Z,5.78
2023-02-01T04:05:47.480Z,5.81
2023-02-01T04:06:47.523Z,5.83
2023-02-01T04:07:47.588Z,5.75
2023-02-01T04:08:47.611Z,5.70
2023-02-01T04:09:47.675Z,5.71
2023-02-01T04:10:47.688Z,5.68
2023-02-01T04:11:47.768Z,5.66
2023-02-01T04:12:47.785Z,5.66
2023-02-01T04:13:47.815Z,5.73
2023-02-01T04:14:47.878Z,5.74
2023-02-01T04:15:47.899Z,5.75
2023-02-01T04:16:48.009Z,5.74
2023-02-01T04:17:47.982Z,5.78
2023-02-01T04:18:48.031Z,5.75
2023-02-01T04:19:48.067Z,5.70
2023-02-01T04:20:48.141Z,5.78
2023-02-01T04:21:48.159Z,5.75
2023-02-01T04:22:48.228Z,5.75
2023-02-01T04:23:48.244Z,5.70
2023-02-01T04:24:48.278Z,5.73
2023-02-01T04:25:48.326Z,5.66
2023-02-01T04:26:48.451Z,5.68
2023-02-01T04:27:48.431Z,5.70
2023-02-01T04:28:48.446Z,5.67
2023-02-01T04:29:48.494Z,5.66
2023-02-01T04:30:48.595Z,5.70
2023-02-01T04:31:48.624Z,5.70
2023-02-01T04:32:48.632Z,5.67
2023-02-01T04:33:48.654Z,5.63
2023-02-01T04:34:48.705Z,5.64
2023-02-01T04:35:48.773Z,5.56
2023-02-01T04:36:48.792Z,5.56
2023-02-01T04:37:48.833Z,5.59
2023-02-01T04:38:48.872Z,5.60
2023-02-01T04:39:48.973Z,5.60
2023-02-01T04:40:48.952Z,5.56
2023-02-01T04:41:48.993Z,5.55
2023-02-01T04:42:49.040Z,5.56
2023-02-01T04:43:49.079Z,5.48
2023-02-01T04:44:49.152Z,5.50
2023-02-01T04:45:49.192Z,5.46
2023-02-01T04:46:49.213Z,5.52
2023-02-01T04:47:49.251Z,5.52
2023-02-01T04:48:49.289Z,5.48
2023-02-01T04:49:49.355Z,5.49
2023-02-01T04:50:49.409Z,5.53
2023-02-01T04:51:49.443Z,5.57
2023-02-01T04:52:49.466Z,5.56
2023-02-01T04:53:49.518Z,5.56
2023-02-01T04:54:49.563Z,5.55
2023-02-01T04:55:49.618Z,5.43
2023-02-01T04:56:49.625Z,5.41
2023-02-01T04:57:49.665Z,5.40
2023-02-01T04:58:49.707Z,5.35
2023-02-01T04:59:49.779Z,5.32
2023-02-01T05:00:49.793Z,5.34
2023-02-01T05:01:49.848Z,5.30
2023-02-01T05:02:49.878Z,5.31
2023-02-01T05:03:49.925Z,5.23
2023-02-01T05:04:50.054Z,5.34
2023-02-01T05:05:50.034Z,5.34
2023-02-01T05:06:50.081Z,5.23
2023-02-01T05:07:50.096Z,5.38
2023-02-01T05:08:50.138Z,5.27
2023-02-01T05:09:50.180Z,5.28
2023-02-01T05:10:50.223Z,5.37
2023-02-01T05:11:50.287Z,5.28
2023-02-01T05:12:50.301Z,5.22
2023-02-01T05:13:50.346Z,5.30
2023-02-01T05:14:50.381Z,5.34
2023-02-01T05:15:50.458Z,5.40
2023-02-01T05:16:50.497Z,5.31
2023-02-01T05:17:50.516Z,5.30
2023-02-01T05:18:50.557Z,5.34
2023-02-01T05:19:50.592Z,5.38
2023-02-01T05:20:50.633Z,5.40
2023-02-01T05:21:50.707Z,5.35
2023-02-01T05:22:50.728Z,5.35
2023-02-01T05:23:50.767Z,5.40
2023-02-01T05:24:50.811Z,5.37
2023-02-01T05:25:50.868Z,5.50
2023-02-01T05:26:50.971Z,5.53
2023-02-01T05:27:50.938Z,5.50
2023-02-01T05:28:50.976Z,5.46
2023-02-01T05:29:51.042Z,5.45
2023-02-01T05:30:51.163Z,5.46
2023-02-01T05:31:51.255Z,5.50
2023-02-01T05:32:51.141Z,5.41
2023-02-01T05:33:51.192Z,5.48
2023-02-01T05:34:51.266Z,5.43
2023-02-01T05:35:52.061Z,5.38
2023-02-01T05:36:51.318Z,5.50
2023-02-01T05:37:51.351Z,5.41
2023-02-01T05:38:51.403Z,5.52
2023-02-01T05:39:51.461Z,5.59
2023-02-01T05:40:51.487Z,5.56
2023-02-01T05:41:51.539Z,5.56
2023-02-01T05:42:51.570Z,5.63
2023-02-01T05:43:51.605Z,5.55
2023-02-01T05:44:51.679Z,5.63
2023-02-01T05:45:51.720Z,5.56
2023-02-01T05:46:51.735Z,5.60
2023-02-01T05:47:51.777Z,5.53
2023-02-01T05:48:51.823Z,5.60
2023-02-01T05:49:51.861Z,5.56
2023-02-01T05:50:51.923Z,5.67
2023-02-01T05:51:51.939Z,5.67
2023-02-01T05:52:51.990Z,5.64
2023-02-01T05:53:52.033Z,5.70
2023-02-01T05:54:52.073Z,5.73
2023-02-01T05:55:52.139Z,5.66
2023-02-01T05:56:52.159Z,5.63
2023-02-01T05:57:52.190Z,5.73
2023-02-01T05:58:52.258Z,5.68
2023-02-01T05:59:52.319Z,5.67
2023-02-01T06:00:52.357Z,5.73
2023-02-01T06:01:52.391Z,5.66
2023-02-01T06:02:52.495Z,5.68
2023-02-01T06:03:52.500Z,5.70
2023-02-01T06:04:52.485Z,5.70
2023-02-01T06:05:52.551Z,5.68
2023-02-01T06:06:52.569Z,5.67
2023-02-01T06:07:52.617Z,5.67
2023-02-01T06:08:52.678Z,5.66
2023-02-01T06:09:52.708Z,5.67
2023-02-01T06:10:52.750Z,5.70
2023-02-01T06:11:52.813Z,5.70
2023-02-01T06:12:52.820Z,5.63
2023-02-01T06:13:52.862Z,5.70
2023-02-01T06:14:52.940Z,5.74
2023-02-01T06:15:52.984Z,5.74
2023-02-01T06:16:52.992Z,5.75
2023-02-01T06:17:53.048Z,5.75
2023-02-01T06:18:53.090Z,5.78
2023-02-01T06:19:53.134Z,5.77
2023-02-01T06:20:53.174Z,5.83
2023-02-01T06:21:53.207Z,5.77
2023-02-01T06:22:53.268Z,5.82
2023-02-01T06:23:53.328Z,5.83
2023-02-01T06:24:53.330Z,5.93
2023-02-01T06:25:53.377Z,5.82
2023-02-01T06:26:53.477Z,5.86
2023-02-01T06:27:53.469Z,5.83
2023-02-01T06:28:53.501Z,5.89
2023-02-01T06:29:53.552Z,5.77
2023-02-01T06:30:53.599Z,5.85
2023-02-01T06:31:53.663Z,5.81
2023-02-01T06:32:53.671Z,5.73
2023-02-01T06:33:53.706Z,5.77
2023-02-01T06:34:53.753Z,5.74
2023-02-01T06:35:53.789Z,5.88
2023-02-01T06:36:53.865Z,5.77
2023-02-01T06:37:53.872Z,5.81
2023-02-01T06:38:53.920Z,5.88
2023-02-01T06:39:53.963Z,5.82
2023-02-01T06:40:53.999Z,5.89
2023-02-01T06:41:54.075Z,5.82
2023-02-01T06:42:54.089Z,5.91
2023-02-01T06:43:54.142Z,5.86
2023-02-01T06:44:54.176Z,5.93
2023-02-01T06:45:54.215Z,5.89
2023-02-01T06:46:54.327Z,5.85
2023-02-01T06:47:54.312Z,5.89
2023-02-01T06:48:54.345Z,5.83
2023-02-01T06:49:54.390Z,5.82
2023-02-01T06:50:54.427Z,5.74
2023-02-01T06:51:54.494Z,5.77
2023-02-01T06:52:55.063Z,5.74
2023-02-01T06:53:54.577Z,5.85
2023-02-01T06:54:54.610Z,5.88
2023-02-01T06:55:54.629Z,5.95
2023-02-01T06:56:54.674Z,5.91
2023-02-01T06:57:54.720Z,5.86
2023-02-01T06:58:54.802Z,5.88
2023-02-01T06:59:55.558Z,5.91
2023-02-01T07:00:54.933Z,5.86
2023-02-01T07:01:54.965Z,5.86
2023-02-01T07:02:54.926Z,5.85
2023-02-01T07:03:54.998Z,5.91
2023-02-01T07:04:55.012Z,5.86
2023-02-01T07:05:55.051Z,5.73
2023-02-01T07:06:55.097Z,5.74
2023-02-01T07:07:55.256Z,5.77
2023-02-01T07:08:55.206Z,5.82
2023-02-01T07:09:55.233Z,5.91
2023-02-01T07:10:55.282Z,5.93
2023-02-01T07:11:55.300Z,5.92
2023-02-01T07:12:55.354Z,5.88
2023-02-01T07:13:55.420Z,5.93
2023-02-01T07:14:55.454Z,5.89
2023-02-01T07:15:55.519Z,5.86
2023-02-01T07:16:55.519Z,5.89
2023-02-01T07:17:55.596Z,5.86
2023-02-01T07:18:55.637Z,5.85
2023-02-01T07:19:55.654Z,5.77
2023-02-01T07:20:55.694Z,5.74
2023-02-01T07:21:55.727Z,5.74
2023-02-01T07:22:55.770Z,5.82
2023-02-01T07:23:55.831Z,5.75
2023-02-01T07:24:55.857Z,5.81
2023-02-01T07:25:55.910Z,5.85
2023-02-01T07:26:55.991Z,5.81
2023-02-01T07:27:56.015Z,5.88
2023-02-01T07:28:56.035Z,5.86
2023-02-01T07:29:56.073Z,5.83
2023-02-01T07:30:56.158Z,5.88
2023-02-01T07:31:56.148Z,5.89
2023-02-01T07:32:56.384Z,5.86
2023-02-01T07:33:56.245Z,5.70
2023-02-01T07:34:56.275Z,5.78
2023-02-01T07:35:56.333Z,5.71
2023-02-01T07:36:56.361Z,5.68
2023-02-01T07:37:56.441Z,5.78
2023-02-01T07:38:56.966Z,5.75
2023-02-01T07:39:56.527Z,5.71
2023-02-01T07:40:56.539Z,5.77
2023-02-01T07:41:56.594Z,5.68
2023-02-01T07:42:56.623Z,5.81
2023-02-01T07:43:56.676Z,5.81
2023-02-01T07:54:34.640Z,5.92
2023-02-01T07:55:36.539Z,5.89
2023-02-01T07:56:34.672Z,5.92
2023-02-01T07:57:34.700Z,5.82
2023-02-01T07:58:34.756Z,5.82
2023-02-01T07:59:34.821Z,5.88
2023-02-01T08:00:34.827Z,5.91
2023-02-01T08:01:34.884Z,5.91
2023-02-01T08:02:35.556Z,5.91
2023-02-01T08:03:34.969Z,5.86
2023-02-01T08:04:35.035Z,5.89
2023-02-01T08:05:35.052Z,5.95
2023-02-01T08:06:35.091Z,6.00
2023-02-01T08:07:35.124Z,6.00
2023-02-01T08:08:35.192Z,5.91
2023-02-01T08:09:35.210Z,5.92
2023-02-01T08:10:35.273Z,6.01
2023-02-01T08:11:35.329Z,6.07
2023-02-01T08:12:35.358Z,5.96
2023-02-01T08:13:35.405Z,5.95
2023-02-01T08:14:35.421Z,5.93
2023-02-01T08:15:35.468Z,5.98
2023-02-01T08:16:35.582Z,6.04
2023-02-01T08:17:36.519Z,5.98
2023-02-01T08:18:35.601Z,6.00
2023-02-01T08:19:35.687Z,6.06
2023-02-01T08:20:35.679Z,6.01
2023-02-01T08:21:35.735Z,6.00
2023-02-01T08:22:35.764Z,6.03
2023-02-01T08:23:35.803Z,6.07
2023-02-01T08:24:35.868Z,6.07
2023-02-01T08:25:35.900Z,5.92
2023-02-01T08:26:35.975Z,5.96
2023-02-01T08:27:35.977Z,5.92
2023-02-01T08:28:37.829Z,5.95
2023-02-01T08:29:36.099Z,5.92
2023-02-01T08:30:36.134Z,5.95
2023-02-01T08:31:36.179Z,5.92
2023-02-01T08:32:36.185Z,5.93
2023-02-01T08:33:36.236Z,5.86
2023-02-01T08:34:36.293Z,5.88
2023-02-01T08:35:43.165Z,5.91
2023-02-01T08:36:36.356Z,5.91
2023-02-01T08:37:36.398Z,5.91
2023-02-01T08:38:36.448Z,5.92
2023-02-01T08:39:36.518Z,5.96
2023-02-01T08:40:36.558Z,5.92
2023-02-01T08:41:36.573Z,5.91
2023-02-01T08:42:36.624Z,5.91
2023-02-01T08:43:37.517Z,5.95
2023-02-01T08:44:36.720Z,6.03
2023-02-01T08:45:36.763Z,6.00
2023-02-01T08:46:36.792Z,5.98
2023-02-01T08:47:36.863Z,6.04
2023-02-01T08:48:36.930Z,6.09
2023-02-01T08:49:36.958Z,6.06
2023-02-01T08:50:37.024Z,6.04
2023-02-01T08:51:37.039Z,6.04
2023-02-01T08:52:38.275Z,6.04
2023-02-01T08:53:37.160Z,6.07
2023-02-01T08:54:37.165Z,6.06
2023-02-01T08:55:37.219Z,6.11
2023-02-01T08:56:37.326Z,6.07
2023-02-01T08:57:37.292Z,6.07
2023-02-01T08:58:37.318Z,6.16
2023-02-01T08:59:37.365Z,6.16
2023-02-01T09:00:37.420Z,6.14
2023-02-01T09:01:37.524Z,6.16
2023-02-01T09:02:37.475Z,6.13
2023-02-01T09:03:37.518Z,6.10
2023-02-01T09:04:37.558Z,6.19
2023-02-01T09:05:48.724Z,6.11
2023-02-01T09:06:37.664Z,6.19
2023-02-01T09:07:37.677Z,6.26
2023-02-01T09:08:37.720Z,6.29
2023-02-01T09:09:37.772Z,6.26
2023-02-01T09:10:38.147Z,6.32
2023-02-01T09:11:37.859Z,6.32
2023-02-01T09:12:37.884Z,6.29
2023-02-01T09:13:37.924Z,6.32
2023-02-01T09:14:38.029Z,6.38
2023-02-01T09:15:38.065Z,6.29
2023-02-01T09:16:38.080Z,6.35
2023-02-01T09:17:38.113Z,6.28
2023-02-01T09:18:45.949Z,6.28
2023-02-01T09:19:38.183Z,6.33
2023-02-01T09:20:38.223Z,6.36
2023-02-01T09:21:38.305Z,6.35
2023-02-01T09:22:38.308Z,6.35
2023-02-01T09:23:38.369Z,6.38
2023-02-01T09:24:38.481Z,6.28
2023-02-01T09:25:39.076Z,6.33
2023-02-01T09:26:38.648Z,6.35
2023-02-01T09:27:38.521Z,6.30
2023-02-01T09:28:38.629Z,6.36
2023-02-01T09:29:38.739Z,6.33
2023-02-01T09:30:38.800Z,6.35
2023-02-01T09:31:40.081Z,6.40
2023-02-01T09:32:38.811Z,6.35
2023-02-01T09:33:38.862Z,6.35
2023-02-01T09:34:38.948Z,6.28
2023-02-01T09:35:38.920Z,6.40
2023-02-01T09:36:39.027Z,6.38
2023-02-01T09:37:39.033Z,6.29
2023-02-01T09:38:44.472Z,6.38
2023-02-01T09:39:39.078Z,6.48
2023-02-01T09:40:39.166Z,6.44
2023-02-01T09:41:39.159Z,6.35
2023-02-01T09:42:39.259Z,6.36
2023-02-01T09:43:39.232Z,6.30
2023-02-01T09:44:44.155Z,6.35
2023-02-01T09:45:39.340Z,6.40
2023-02-01T09:46:39.429Z,6.40
2023-02-01T09:47:39.423Z,6.48
2023-02-01T09:48:40.068Z,6.44
2023-02-01T09:49:39.567Z,6.44
2023-02-01T09:50:39.573Z,6.41
2023-02-01T09:51:39.607Z,6.48
2023-02-01T09:52:39.623Z,6.51
2023-02-01T09:53:39.671Z,6.58
2023-02-01T09:54:39.745Z,6.59
2023-02-01T09:55:40.557Z,6.63
2023-02-01T09:56:39.776Z,6.51
2023-02-01T09:57:39.869Z,6.48
2023-02-01T09:58:39.870Z,6.63
2023-02-01T09:59:39.937Z,6.65
2023-02-01T10:00:39.951Z,6.66
2023-02-01T10:01:40.102Z,6.63
2023-02-01T10:02:40.134Z,6.61
2023-02-01T10:03:40.102Z,6.68
2023-02-01T10:04:40.094Z,6.62
2023-02-01T10:05:40.279Z,6.63
2023-02-01T10:06:40.205Z,6.72
2023-02-01T10:07:40.354Z,6.66
2023-02-01T10:08:40.414Z,6.71
2023-02-01T10:09:40.360Z,6.72
2023-02-01T10:10:40.376Z,6.73
2023-02-01T10:11:40.502Z,6.77
2023-02-01T10:12:40.491Z,6.77
2023-02-01T10:13:40.549Z,6.71
2023-02-01T10:14:40.582Z,6.72
2023-02-01T10:15:40.640Z,6.76
2023-02-01T10:16:40.891Z,6.71
2023-02-01T10:17:40.721Z,6.79
2023-02-01T10:18:40.755Z,6.73
2023-02-01T10:19:40.874Z,6.73
2023-02-01T10:20:40.852Z,6.79
2023-02-01T10:21:40.871Z,6.83
2023-02-01T10:23:04.958Z,6.84
2023-02-01T10:23:40.953Z,6.90
2023-02-01T10:24:41.012Z,6.89
2023-02-01T10:25:41.158Z,6.91
2023-02-01T10:26:41.185Z,6.90
2023-02-01T10:27:41.111Z,6.90
2023-02-01T10:28:41.233Z,6.90
2023-02-01T10:29:41.235Z,6.98
2023-02-01T10:30:41.298Z,6.95
2023-02-01T10:31:41.449Z,7.04
2023-02-01T10:32:41.390Z,6.99
2023-02-01T10:33:41.389Z,7.02
2023-02-01T10:34:41.431Z,6.99
2023-02-01T10:35:41.528Z,7.04
2023-02-01T10:36:41.516Z,7.01
2023-02-01T10:37:41.608Z,7.12
2023-02-01T10:38:41.589Z,6.98
2023-02-01T10:39:41.660Z,7.15
2023-02-01T10:40:41.675Z,7.13
2023-02-01T10:41:41.850Z,7.15
2023-02-01T10:42:41.783Z,7.23
2023-02-01T10:43:41.895Z,7.15
2023-02-01T10:44:41.875Z,7.19
2023-02-01T10:45:41.906Z,7.26
2023-02-01T10:46:41.999Z,7.27
2023-02-01T10:47:42.002Z,7.29
2023-02-01T10:48:42.139Z,7.29
2023-02-01T10:49:42.090Z,7.41
2023-02-01T10:50:42.143Z,7.26
2023-02-01T10:51:42.201Z,7.41
2023-02-01T10:52:42.236Z,7.31
2023-02-01T10:53:42.290Z,7.29
2023-02-01T10:54:42.260Z,7.42
2023-02-01T10:55:42.331Z,7.29
2023-02-01T10:56:42.353Z,7.31
2023-02-01T10:57:42.394Z,7.26
2023-02-01T10:58:42.478Z,7.24
2023-02-01T10:59:44.245Z,7.15
2023-02-01T11:00:42.557Z,7.19
2023-02-01T11:01:42.620Z,7.29
2023-02-01T11:02:42.674Z,7.20
2023-02-01T11:03:42.669Z,7.29
2023-02-01T11:04:42.743Z,7.24
2023-02-01T11:05:44.731Z,7.32
2023-02-01T11:06:42.807Z,7.26
2023-02-01T11:07:42.909Z,7.31
2023-02-01T11:08:42.886Z,7.24
2023-02-01T11:09:43.032Z,7.24
2023-02-01T11:10:43.033Z,7.23
2023-02-01T11:11:43.166Z,7.29
2023-02-01T11:12:43.081Z,7.20
2023-02-01T11:13:43.138Z,7.22
2023-02-01T11:14:43.190Z,7.27
2023-02-01T11:15:43.240Z,7.27
2023-02-01T11:16:43.308Z,7.27
2023-02-01T11:17:43.340Z,7.31
2023-02-01T11:18:43.390Z,7.32
2023-02-01T11:19:43.453Z,7.31
2023-02-01T11:20:43.467Z,7.31
2023-02-01T11:21:43.501Z,7.37
2023-02-01T11:22:43.508Z,7.42
2023-02-01T11:23:43.551Z,7.42
2023-02-01T11:24:43.605Z,7.40
2023-02-01T11:25:43.652Z,7.44
2023-02-01T11:26:43.770Z,7.49
2023-02-01T11:27:54.527Z,7.55
2023-02-01T11:28:43.780Z,7.53
2023-02-01T11:29:43.815Z,7.63
2023-02-01T11:30:43.853Z,7.75
2023-02-01T11:31:43.949Z,7.78
2023-02-01T11:32:43.941Z,7.90
2023-02-01T11:33:44.020Z,8.11
2023-02-01T11:34:44.031Z,8.15
2023-02-01T11:35:44.062Z,8.18
2023-02-01T11:36:44.113Z,8.26
2023-02-01T11:37:44.190Z,8.26
2023-02-01T11:38:44.199Z,8.36
2023-02-01T11:39:44.247Z,8.45
2023-02-01T11:40:44.289Z,8.58
2023-02-01T11:41:44.387Z,8.75
2023-02-01T11:42:44.389Z,8.91
2023-02-01T11:43:44.455Z,8.96
2023-02-01T11:44:44.476Z,8.99
2023-02-01T11:45:44.579Z,9.23
2023-02-01T11:46:44.626Z,9.32
2023-02-01T11:47:44.607Z,9.45
2023-02-01T11:48:44.672Z,9.38
2023-02-01T11:49:44.710Z,9.28
2023-02-01T11:50:44.746Z,9.38
2023-02-01T11:51:44.826Z,9.40
2023-02-01T11:52:44.917Z,9.45
2023-02-01T11:53:44.896Z,9.40
2023-02-01T11:54:44.937Z,9.31
2023-02-01T11:55:45.037Z,9.32
2023-02-01T11:56:45.048Z,9.21
2023-02-01T11:57:45.142Z,9.15
2023-02-01T11:58:45.124Z,8.81
2023-02-01T11:59:51.692Z,8.65
2023-02-01T12:00:45.216Z,8.60
2023-02-01T12:01:45.274Z,8.66
2023-02-01T12:02:46.845Z,8.54
2023-02-01T12:03:45.352Z,8.51
2023-02-01T12:04:45.397Z,8.51
2023-02-01T12:05:45.443Z,8.50
2023-02-01T12:06:45.488Z,8.39
2023-02-01T12:07:45.568Z,8.39
2023-02-01T12:08:46.104Z,8.40
2023-02-01T12:09:45.635Z,8.32
2023-02-01T12:10:45.668Z,8.30
2023-02-01T12:11:45.717Z,8.22
2023-02-01T12:12:45.760Z,8.25
2023-02-01T12:13:45.866Z,8.22
2023-02-01T12:14:45.851Z,8.18
2023-02-01T12:15:45.911Z,8.10
2023-02-01T12:16:45.984Z,8.10
2023-02-01T12:17:45.997Z,8.14
2023-02-01T12:18:46.074Z,8.11
2023-02-01T12:19:46.090Z,8.07
2023-02-01T12:20:46.154Z,8.14
2023-02-01T12:21:46.217Z,8.12
2023-02-01T12:22:46.273Z,8.11
2023-02-01T12:23:46.367Z,8.20
2023-02-01T12:24:46.355Z,8.12
2023-02-01T12:25:46.455Z,8.21
2023-02-01T12:26:46.539Z,8.30
2023-02-01T12:27:46.501Z,8.32
2023-02-01T12:28:46.515Z,8.50
2023-02-01T12:29:46.596Z,8.55
2023-02-01T12:30:46.668Z,8.48
2023-02-01T12:31:48.043Z,8.48
2023-02-01T12:32:46.699Z,8.28
2023-02-01T12:33:46.714Z,8.29
2023-02-01T12:34:46.852Z,8.28
2023-02-01T12:35:46.879Z,8.26
2023-02-01T12:36:47.021Z,8.21
2023-02-01T12:37:47.021Z,8.20
2023-02-01T12:38:47.053Z,8.20
2023-02-01T12:39:47.145Z,8.18
2023-02-01T12:40:47.089Z,8.25
2023-02-01T12:41:47.128Z,8.20
2023-02-01T12:42:47.197Z,8.11
2023-02-01T12:43:47.233Z,8.12
2023-02-01T12:44:47.204Z,8.10
2023-02-01T12:45:47.300Z,7.93
2023-02-01T12:46:47.297Z,8.07
2023-02-01T12:47:47.343Z,7.87
2023-02-01T12:48:47.425Z,7.96
2023-02-01T12:49:47.431Z,7.92
2023-02-01T12:50:47.544Z,7.96
2023-02-01T12:51:47.569Z,7.97
2023-02-01T12:52:47.706Z,7.99
2023-02-01T12:53:48.000Z,8.11
2023-02-01T12:54:47.701Z,8.08
2023-02-01T12:55:50.509Z,8.10
2023-02-01T12:56:47.793Z,7.97
2023-02-01T12:57:47.792Z,8.07
2023-02-01T12:58:47.972Z,8.08
2023-02-01T12:59:47.946Z,8.14
2023-02-01T13:00:48.042Z,8.12
2023-02-01T13:01:48.483Z,8.25
2023-02-01T13:02:48.075Z,8.20
2023-02-01T13:03:48.058Z,8.21
2023-02-01T13:04:48.177Z,8.22
2023-02-01T13:05:48.213Z,8.25
2023-02-01T13:06:48.389Z,8.21
2023-02-01T13:07:48.246Z,8.15
2023-02-01T13:08:48.281Z,8.17
2023-02-01T13:09:48.338Z,8.22
2023-02-01T13:10:48.391Z,8.11
2023-02-01T13:11:48.454Z,8.25
2023-02-01T13:12:48.465Z,8.30
2023-02-01T13:13:48.517Z,8.25
2023-02-01T13:14:48.564Z,8.22
2023-02-01T13:15:48.597Z,8.29
2023-02-01T13:16:48.722Z,8.25
2023-02-01T13:17:48.691Z,8.22
2023-02-01T13:18:48.748Z,8.21
2023-02-01T13:19:48.792Z,8.33
2023-02-01T13:20:48.827Z,8.35
2023-02-01T13:21:48.906Z,8.32
2023-02-01T13:22:48.931Z,8.32
2023-02-01T13:23:48.956Z,8.30
2023-02-01T13:24:49.008Z,8.28
2023-02-01T13:25:49.037Z,8.30
2023-02-01T13:26:49.132Z,8.33
2023-02-01T13:27:49.159Z,8.20
2023-02-01T13:28:49.192Z,8.30